Time;durP1;ratioP1;P1;durP2;ratioP2;P2;SDS_P1;SDS_P2;PMS_P1;PMS_P2;Temp;Humidity;BMP_temperature;BMP_pressure;BME280_temperature;BME280_humidity;BME280_pressure;Samples;Min_cycle;Max_cycle;Signal;HPM_P1;HPM_P2
2022/07/21 00:00:07;;;;;;;9.73;5.97;;;22.00;99.90;;;;;;5017982;28;20044;-39
2022/07/21 00:02:33;;;;;;;9.45;6.68;;;21.90;99.90;;;;;;5018739;28;20156;-41
2022/07/21 00:04:58;;;;;;;11.10;6.82;;;21.90;99.90;;;;;;5015796;28;20187;-39
2022/07/21 00:07:24;;;;;;;8.02;5.65;;;21.90;99.90;;;;;;5021385;28;20132;-39
2022/07/21 00:09:50;;;;;;;9.75;7.25;;;21.90;99.90;;;;;;5018395;28;20038;-39
2022/07/21 00:12:15;;;;;;;12.07;8.05;;;21.90;99.90;;;;;;5019692;28;20039;-40
2022/07/21 00:14:41;;;;;;;11.23;7.53;;;21.80;99.90;;;;;;5018416;28;20069;-41
2022/07/21 00:17:07;;;;;;;10.20;7.15;;;21.70;99.90;;;;;;5011229;28;20073;-39
2022/07/21 00:19:32;;;;;;;14.25;7.75;;;21.70;99.90;;;;;;5018032;28;20097;-42
2022/07/21 00:21:58;;;;;;;12.50;7.15;;;21.70;99.90;;;;;;5019799;28;20549;-39
2022/07/21 00:24:24;;;;;;;12.45;8.35;;;21.60;99.90;;;;;;5015558;28;20052;-39
2022/07/21 00:26:49;;;;;;;14.80;10.32;;;21.60;99.90;;;;;;5014383;28;20038;-41
2022/07/21 00:29:15;;;;;;;15.48;10.70;;;21.50;99.90;;;;;;5018367;28;20092;-38
2022/07/21 00:31:41;;;;;;;15.02;11.60;;;21.50;99.90;;;;;;5020411;28;20037;-39
2022/07/21 00:34:06;;;;;;;16.00;12.13;;;21.40;99.90;;;;;;5019566;28;20060;-39
2022/07/21 00:36:32;;;;;;;14.48;10.80;;;21.40;99.90;;;;;;5019148;28;20073;-39
2022/07/21 00:38:58;;;;;;;15.20;10.98;;;21.40;99.90;;;;;;5016908;28;20033;-40
2022/07/21 00:41:24;;;;;;;14.18;12.23;;;21.40;99.90;;;;;;5022154;28;20466;-38
2022/07/21 00:43:49;;;;;;;15.15;12.88;;;21.40;99.90;;;;;;5017064;28;20041;-39
2022/07/21 00:46:15;;;;;;;17.00;13.05;;;21.40;99.90;;;;;;5017251;28;20037;-39
2022/07/21 00:48:41;;;;;;;15.23;12.27;;;21.50;99.90;;;;;;5025536;28;20091;-39
2022/07/21 00:51:06;;;;;;;18.92;12.70;;;21.50;99.90;;;;;;5024527;28;20033;-39
2022/07/21 00:53:32;;;;;;;17.30;12.75;;;21.50;99.90;;;;;;5021857;28;20063;-41
2022/07/21 00:55:59;;;;;;;19.00;13.38;;;21.50;99.90;;;;;;5025394;28;20029;-39
2022/07/21 00:58:25;;;;;;;24.70;15.27;;;21.50;99.90;;;;;;5012638;28;20184;-38
2022/07/21 01:00:51;;;;;;;19.33;14.45;;;21.40;99.90;;;;;;5015894;28;20067;-37
2022/07/21 01:03:17;;;;;;;19.48;15.25;;;21.40;99.90;;;;;;5022893;28;20109;-38
2022/07/21 01:05:43;;;;;;;17.30;14.02;;;21.40;99.90;;;;;;5021489;28;20382;-40
2022/07/21 01:08:08;;;;;;;21.52;15.90;;;21.30;99.90;;;;;;5019516;28;20088;-41
2022/07/21 01:10:34;;;;;;;19.95;14.52;;;21.30;99.90;;;;;;5013681;28;20125;-38
2022/07/21 01:13:00;;;;;;;24.67;14.57;;;21.30;99.90;;;;;;5014499;28;20498;-38
2022/07/21 01:15:26;;;;;;;16.77;14.52;;;21.20;99.90;;;;;;5014676;28;20046;-40
2022/07/21 01:17:52;;;;;;;21.30;16.95;;;21.20;99.90;;;;;;5019068;28;20037;-40
2022/07/21 01:20:20;;;;;;;21.55;16.88;;;21.20;99.90;;;;;;5017711;28;20482;-40
2022/07/21 01:22:48;;;;;;;25.65;18.98;;;21.20;99.90;;;;;;5015014;28;20045;-38
2022/07/21 01:25:15;;;;;;;20.60;16.67;;;21.20;99.90;;;;;;5038245;28;20049;-38
2022/07/21 01:27:41;;;;;;;22.33;18.02;;;21.10;99.90;;;;;;5010630;28;20034;-38
2022/07/21 01:30:08;;;;;;;24.35;17.67;;;21.10;99.90;;;;;;5022215;28;20462;-38
2022/07/21 01:32:38;;;;;;;22.10;18.30;;;21.10;99.90;;;;;;5014651;28;20145;-38
2022/07/21 01:35:05;;;;;;;25.40;19.15;;;21.10;99.90;;;;;;5012319;28;20042;-39
2022/07/21 01:37:33;;;;;;;22.55;18.20;;;21.10;99.90;;;;;;5028436;28;20038;-40
2022/07/21 01:42:43;;;;;;;21.08;16.88;;;21.10;99.90;;;;;;5021619;28;20169;-40
2022/07/21 01:45:09;;;;;;;22.52;18.38;;;21.10;99.90;;;;;;5009869;28;20088;-37
2022/07/21 01:47:35;;;;;;;23.83;19.67;;;21.00;99.90;;;;;;5012383;28;20041;-38
2022/07/21 01:50:01;;;;;;;25.08;19.80;;;20.90;99.90;;;;;;5018377;28;20048;-40
2022/07/21 01:52:26;;;;;;;21.20;17.77;;;20.80;99.90;;;;;;5019164;28;20037;-40
2022/07/21 01:54:52;;;;;;;22.73;18.23;;;20.70;99.90;;;;;;5016540;28;20140;-40
2022/07/21 01:57:18;;;;;;;22.08;17.73;;;20.70;99.90;;;;;;5002631;28;20132;-41
2022/07/21 01:59:44;;;;;;;24.75;19.92;;;20.80;99.90;;;;;;5014672;28;20064;-39
2022/07/21 02:02:10;;;;;;;27.05;20.98;;;20.80;99.90;;;;;;5016072;28;20052;-40
2022/07/21 02:04:36;;;;;;;17.05;14.27;;;20.80;99.90;;;;;;5021592;28;20042;-38
2022/07/21 02:07:02;;;;;;;20.48;17.80;;;20.80;99.90;;;;;;5012729;28;20788;-42
2022/07/21 02:09:29;;;;;;;22.10;17.25;;;20.90;99.90;;;;;;5011557;28;20042;-38
2022/07/21 02:11:55;;;;;;;20.23;16.30;;;20.90;99.90;;;;;;5015062;28;20490;-38
2022/07/21 02:14:21;;;;;;;25.33;19.67;;;20.90;99.90;;;;;;5018490;28;20495;-40
2022/07/21 02:16:46;;;;;;;17.65;15.10;;;20.90;99.90;;;;;;5018385;28;20478;-38
2022/07/21 02:19:12;;;;;;;23.35;19.52;;;20.90;99.90;;;;;;5011298;28;20156;-38
2022/07/21 02:21:38;;;;;;;22.77;18.50;;;20.90;99.90;;;;;;5015377;28;20057;-38
2022/07/21 02:24:04;;;;;;;24.20;19.50;;;20.80;99.90;;;;;;5014954;28;20084;-38
2022/07/21 02:26:30;;;;;;;26.13;18.90;;;20.80;99.90;;;;;;5012609;28;20076;-39
2022/07/21 02:28:55;;;;;;;21.63;18.33;;;20.80;99.90;;;;;;5022098;28;20073;-40
2022/07/21 02:31:21;;;;;;;19.13;16.02;;;20.80;99.90;;;;;;5013135;28;20049;-40
2022/07/21 02:33:47;;;;;;;22.42;17.90;;;20.90;99.90;;;;;;5012873;28;20091;-40
2022/07/21 02:36:12;;;;;;;17.98;15.32;;;20.90;99.90;;;;;;5016102;28;20042;-39
2022/07/21 02:38:38;;;;;;;23.70;17.17;;;20.90;99.90;;;;;;5019724;28;20034;-38
2022/07/21 02:41:05;;;;;;;23.35;17.65;;;20.80;99.90;;;;;;5018681;28;20160;-40
2022/07/21 02:43:30;;;;;;;22.13;18.42;;;20.80;99.90;;;;;;5017478;28;20068;-40
2022/07/21 02:45:56;;;;;;;20.90;17.65;;;20.60;99.90;;;;;;5018094;28;20042;-38
2022/07/21 02:48:22;;;;;;;18.50;14.07;;;20.60;99.90;;;;;;5026478;28;20033;-43
2022/07/21 02:50:48;;;;;;;17.48;13.80;;;20.50;99.90;;;;;;5023353;28;20048;-38
2022/07/21 02:53:19;;;;;;;17.67;15.32;;;20.50;99.90;;;;;;5018729;28;20044;-39
2022/07/21 02:55:49;;;;;;;21.83;16.60;;;20.50;99.90;;;;;;5020889;28;20148;-38
2022/07/21 02:58:26;;;;;;;19.65;15.30;;;20.40;99.90;;;;;;5018810;28;20616;-40
2022/07/21 03:00:57;;;;;;;18.80;15.38;;;20.30;99.90;;;;;;5018653;28;20044;-40
2022/07/21 03:03:25;;;;;;;18.33;14.82;;;20.20;99.90;;;;;;5018570;28;20048;-40
2022/07/21 03:05:50;;;;;;;21.13;15.90;;;20.10;99.90;;;;;;5012243;28;20038;-38
2022/07/21 03:08:17;;;;;;;18.42;13.93;;;20.10;99.90;;;;;;5011535;28;20034;-38
2022/07/21 03:10:43;;;;;;;18.45;15.60;;;20.00;99.90;;;;;;5019183;28;20065;-36
2022/07/21 03:13:09;;;;;;;14.23;12.40;;;20.00;99.90;;;;;;5018350;28;20148;-40
2022/07/21 03:15:36;;;;;;;18.05;13.70;;;20.00;99.90;;;;;;5013049;28;20115;-38
2022/07/21 03:18:02;;;;;;;16.67;12.85;;;20.00;99.90;;;;;;5031313;28;20082;-38
2022/07/21 03:20:30;;;;;;;17.92;13.43;;;20.00;99.90;;;;;;5015116;28;20116;-40
2022/07/21 03:22:56;;;;;;;14.70;12.30;;;20.00;99.90;;;;;;5023004;28;20033;-38
2022/07/21 03:25:22;;;;;;;15.60;13.13;;;19.90;99.90;;;;;;5012451;28;20034;-38
2022/07/21 03:27:48;;;;;;;17.58;12.60;;;19.90;99.90;;;;;;5021087;28;20482;-40
2022/07/21 03:30:16;;;;;;;15.40;12.40;;;19.80;99.90;;;;;;5025091;28;20056;-39
2022/07/21 03:32:42;;;;;;;14.43;12.35;;;19.80;99.90;;;;;;5018793;28;20045;-38
2022/07/21 03:35:10;;;;;;;15.50;11.45;;;19.90;99.90;;;;;;5014651;28;20059;-38
2022/07/21 03:37:48;;;;;;;13.63;11.73;;;19.90;99.90;;;;;;5016172;28;20034;-38
2022/07/21 03:40:16;;;;;;;14.25;11.48;;;19.90;99.90;;;;;;5026901;28;20037;-40
2022/07/21 03:42:42;;;;;;;18.48;13.75;;;20.00;99.90;;;;;;5028000;28;20045;-41
2022/07/21 03:45:08;;;;;;;16.60;13.55;;;20.00;99.90;;;;;;5024428;28;20111;-51
2022/07/21 03:47:34;;;;;;;17.08;13.65;;;20.00;99.90;;;;;;5018507;28;20045;-40
2022/07/21 03:50:00;;;;;;;14.27;11.55;;;19.90;99.90;;;;;;5023969;28;20083;-39
2022/07/21 03:52:26;;;;;;;16.17;12.57;;;19.90;99.90;;;;;;5031449;28;20128;-38
2022/07/21 03:55:07;;;;;;;18.30;14.23;;;19.90;99.90;;;;;;5019499;28;20120;-40
2022/07/21 03:57:39;;;;;;;17.67;13.63;;;19.90;99.90;;;;;;5013478;28;20037;-41
2022/07/21 04:00:09;;;;;;;16.67;13.70;;;19.90;99.90;;;;;;5025494;28;20037;-40
2022/07/21 04:02:35;;;;;;;17.35;13.75;;;19.90;99.90;;;;;;5019296;28;20138;-40
2022/07/21 04:05:02;;;;;;;19.15;13.52;;;20.00;99.90;;;;;;5020233;28;20457;-37
2022/07/21 04:07:27;;;;;;;15.90;13.55;;;20.00;99.90;;;;;;5013507;28;20034;-37
2022/07/21 04:09:53;;;;;;;17.25;14.52;;;20.00;99.90;;;;;;5027586;28;20410;-38
2022/07/21 04:12:19;;;;;;;19.92;15.52;;;20.00;99.90;;;;;;5019251;28;20250;-39
2022/07/21 04:14:44;;;;;;;19.77;14.75;;;20.00;99.90;;;;;;5021886;28;20042;-38
2022/07/21 04:17:10;;;;;;;17.45;15.15;;;20.00;99.90;;;;;;5011539;28;20490;-37
2022/07/21 04:19:36;;;;;;;15.43;12.95;;;20.00;99.90;;;;;;5014746;28;20042;-38
2022/07/21 04:22:01;;;;;;;21.17;16.23;;;20.00;99.90;;;;;;5019032;28;20042;-40
2022/07/21 04:24:27;;;;;;;18.30;14.75;;;20.00;99.90;;;;;;5017228;28;20122;-38
2022/07/21 04:26:53;;;;;;;14.93;12.80;;;20.00;99.90;;;;;;5013898;28;20418;-38
2022/07/21 04:29:18;;;;;;;21.13;15.68;;;20.00;99.90;;;;;;5018373;28;20469;-38
2022/07/21 04:31:44;;;;;;;20.60;16.80;;;20.10;99.90;;;;;;5018472;28;20533;-37
2022/07/21 04:34:10;;;;;;;18.63;15.00;;;20.10;99.90;;;;;;5021283;28;20053;-40
2022/07/21 04:36:35;;;;;;;20.42;13.52;;;20.00;99.90;;;;;;5015551;28;20048;-38
2022/07/21 04:39:04;;;;;;;20.08;15.23;;;20.10;99.90;;;;;;5018789;28;20530;-37
2022/07/21 04:41:29;;;;;;;17.35;13.23;;;20.00;99.90;;;;;;5019306;28;20140;-38
2022/07/21 04:43:55;;;;;;;15.05;13.45;;;20.00;99.90;;;;;;5017290;28;20112;-38
2022/07/21 04:46:21;;;;;;;16.52;13.60;;;20.00;99.90;;;;;;5018543;28;20483;-38
2022/07/21 04:48:46;;;;;;;16.27;12.10;;;20.00;99.90;;;;;;5025469;28;20037;-38
2022/07/21 04:51:12;;;;;;;15.10;12.85;;;20.00;99.90;;;;;;5023165;28;20554;-40
2022/07/21 04:53:37;;;;;;;14.43;11.73;;;20.00;99.90;;;;;;5021096;28;20041;-40
2022/07/21 04:56:03;;;;;;;15.55;12.10;;;20.00;99.90;;;;;;5014675;28;20037;-38
2022/07/21 04:58:29;;;;;;;15.13;12.30;;;20.00;99.90;;;;;;5015022;28;20449;-37
2022/07/21 05:00:55;;;;;;;14.48;11.35;;;20.00;99.90;;;;;;5014570;28;20466;-38
2022/07/21 05:03:20;;;;;;;14.93;12.43;;;20.00;99.90;;;;;;5020487;28;20111;-40
2022/07/21 05:05:46;;;;;;;17.17;13.45;;;20.10;99.90;;;;;;5029386;28;20092;-38
2022/07/21 05:08:12;;;;;;;14.55;11.63;;;20.10;99.90;;;;;;5010253;28;20033;-41
2022/07/21 05:10:37;;;;;;;15.43;12.13;;;20.10;99.90;;;;;;5019605;28;20041;-36
2022/07/21 05:13:03;;;;;;;14.70;11.73;;;20.00;99.90;;;;;;5016410;28;20472;-41
2022/07/21 05:15:28;;;;;;;11.98;9.93;;;20.00;99.90;;;;;;5012929;28;21741;-40
2022/07/21 05:17:54;;;;;;;13.15;9.95;;;20.00;99.90;;;;;;5018379;28;20042;-40
2022/07/21 05:20:20;;;;;;;16.98;11.32;;;20.00;99.90;;;;;;5017906;28;20378;-41
2022/07/21 05:22:45;;;;;;;12.93;11.10;;;19.90;99.90;;;;;;5013283;28;20271;-40
2022/07/21 05:25:12;;;;;;;14.32;10.90;;;19.90;99.90;;;;;;5020576;28;20517;-38
2022/07/21 05:27:37;;;;;;;14.30;10.48;;;19.80;99.90;;;;;;5013603;28;20117;-41
2022/07/21 05:30:04;;;;;;;15.40;12.20;;;19.90;99.90;;;;;;5016029;28;20569;-41
2022/07/21 05:32:30;;;;;;;15.80;11.88;;;19.90;99.90;;;;;;5015282;28;20038;-41
2022/07/21 05:34:55;;;;;;;12.75;10.35;;;19.90;99.90;;;;;;5015024;28;20119;-38
2022/07/21 05:37:21;;;;;;;15.25;11.27;;;19.90;99.90;;;;;;5014906;28;20044;-39
2022/07/21 05:39:47;;;;;;;16.88;12.50;;;19.90;99.90;;;;;;5011891;28;20030;-43
2022/07/21 05:42:12;;;;;;;15.68;12.18;;;19.90;99.90;;;;;;5013887;28;20587;-40
2022/07/21 05:44:38;;;;;;;17.48;12.63;;;19.90;99.90;;;;;;5016233;28;20113;-43
2022/07/21 05:47:04;;;;;;;13.07;10.27;;;19.90;99.90;;;;;;5016411;28;20044;-44
2022/07/21 05:49:30;;;;;;;17.92;12.93;;;19.90;99.90;;;;;;5017599;28;20116;-39
2022/07/21 05:51:55;;;;;;;16.65;12.73;;;19.90;99.90;;;;;;5024391;28;20034;-40
2022/07/21 05:54:21;;;;;;;16.10;12.57;;;19.90;99.90;;;;;;5025758;28;20045;-42
2022/07/21 05:56:47;;;;;;;16.85;11.77;;;19.80;99.90;;;;;;5029422;28;20033;-40
2022/07/21 05:59:12;;;;;;;17.20;12.65;;;19.80;99.90;;;;;;5019239;28;20486;-40
2022/07/21 06:01:38;;;;;;;16.98;12.80;;;19.70;99.90;;;;;;5016054;28;20041;-38
2022/07/21 06:04:04;;;;;;;17.05;13.15;;;19.70;99.90;;;;;;5021779;28;20038;-37
2022/07/21 06:06:29;;;;;;;15.25;11.30;;;19.70;99.90;;;;;;5018625;28;20044;-38
2022/07/21 06:08:55;;;;;;;16.67;12.13;;;19.70;99.90;;;;;;5020760;28;20041;-38
2022/07/21 06:11:21;;;;;;;15.52;11.75;;;19.70;99.90;;;;;;5008893;28;20053;-40
2022/07/21 06:13:48;;;;;;;16.25;12.50;;;19.70;99.90;;;;;;5009423;28;20171;-39
2022/07/21 06:16:13;;;;;;;14.40;12.63;;;19.80;99.90;;;;;;5006949;28;20428;-39
2022/07/21 06:18:39;;;;;;;16.85;13.02;;;20.00;99.90;;;;;;5025786;28;20069;-41
2022/07/21 06:21:05;;;;;;;14.45;11.43;;;20.10;99.90;;;;;;5018450;28;20409;-38
2022/07/21 06:23:31;;;;;;;18.10;13.18;;;20.20;99.90;;;;;;5015100;28;20096;-41
2022/07/21 06:25:57;;;;;;;16.10;13.05;;;20.40;99.90;;;;;;5012389;28;20118;-38
2022/07/21 06:28:23;;;;;;;17.70;12.88;;;20.50;99.90;;;;;;5016008;28;20459;-38
2022/07/21 06:30:49;;;;;;;15.80;13.23;;;20.70;99.90;;;;;;5020458;28;20034;-37
2022/07/21 06:33:15;;;;;;;16.63;12.60;;;20.70;99.90;;;;;;5014665;28;20038;-39
2022/07/21 06:35:41;;;;;;;18.35;13.77;;;20.70;99.90;;;;;;5023040;28;20095;-38
2022/07/21 06:38:07;;;;;;;17.33;13.88;;;20.70;99.90;;;;;;5010012;28;20448;-36
2022/07/21 06:40:33;;;;;;;15.93;13.27;;;20.80;99.90;;;;;;5011618;28;20083;-38
2022/07/21 06:42:58;;;;;;;19.38;13.85;;;20.90;99.90;;;;;;5018442;28;20116;-38
2022/07/21 06:45:24;;;;;;;17.05;13.23;;;21.00;99.90;;;;;;5015825;28;20042;-39
2022/07/21 06:47:50;;;;;;;17.92;14.32;;;21.00;99.90;;;;;;5015710;28;20348;-39
2022/07/21 06:50:16;;;;;;;18.75;15.05;;;21.10;99.90;;;;;;5017729;28;20128;-39
2022/07/21 06:52:42;;;;;;;22.67;15.98;;;21.10;99.90;;;;;;5028252;28;20037;-37
2022/07/21 06:55:08;;;;;;;15.48;12.95;;;21.00;99.90;;;;;;5010426;28;20424;-37
2022/07/21 06:57:35;;;;;;;21.00;15.27;;;21.00;99.90;;;;;;5016367;28;20639;-40
2022/07/21 07:00:06;;;;;;;17.45;14.60;;;21.10;99.90;;;;;;5016188;28;20538;-43
2022/07/21 07:02:32;;;;;;;19.95;14.32;;;21.10;99.90;;;;;;5015633;28;20062;-36
2022/07/21 07:04:57;;;;;;;20.65;16.13;;;21.10;99.90;;;;;;5017351;28;20442;-38
2022/07/21 07:07:23;;;;;;;20.58;13.77;;;21.10;99.90;;;;;;5018524;28;20074;-39
2022/07/21 07:09:49;;;;;;;21.40;16.25;;;21.20;99.90;;;;;;5024147;28;20048;-43
2022/07/21 07:12:15;;;;;;;21.02;16.35;;;21.20;99.90;;;;;;5014910;28;20379;-36
2022/07/21 07:14:40;;;;;;;23.40;16.50;;;21.10;99.90;;;;;;5017267;28;20065;-37
2022/07/21 07:17:06;;;;;;;22.17;17.02;;;21.00;99.90;;;;;;5013715;28;20038;-41
2022/07/21 07:19:32;;;;;;;21.17;16.83;;;20.90;99.90;;;;;;5018461;28;20045;-41
2022/07/21 07:21:58;;;;;;;21.20;16.67;;;21.00;99.90;;;;;;5018540;28;20037;-39
2022/07/21 07:24:24;;;;;;;24.48;17.10;;;21.00;99.90;;;;;;5013584;28;20045;-39
2022/07/21 07:26:50;;;;;;;22.77;16.98;;;21.10;99.90;;;;;;5015103;28;20049;-42
2022/07/21 07:29:15;;;;;;;26.30;18.65;;;21.20;99.90;;;;;;5018179;28;20077;-39
2022/07/21 07:31:41;;;;;;;22.25;17.05;;;21.30;99.90;;;;;;5017729;28;20045;-39
2022/07/21 07:34:07;;;;;;;19.50;15.07;;;21.40;99.90;;;;;;5020090;28;20045;-38
2022/07/21 07:36:33;;;;;;;23.55;18.13;;;21.50;99.90;;;;;;5018579;28;20038;-38
2022/07/21 07:38:59;;;;;;;22.25;17.13;;;21.60;99.90;;;;;;5011751;28;20056;-40
2022/07/21 07:41:26;;;;;;;24.80;19.25;;;21.60;99.90;;;;;;5011740;28;20041;-36
2022/07/21 07:43:52;;;;;;;26.40;19.10;;;21.60;99.90;;;;;;5028277;28;20033;-35
2022/07/21 07:46:18;;;;;;;24.45;18.92;;;21.60;99.90;;;;;;5015845;28;20052;-37
2022/07/21 07:48:44;;;;;;;27.67;20.60;;;21.60;99.90;;;;;;5022362;28;20041;-38
2022/07/21 07:51:11;;;;;;;27.80;19.92;;;21.70;99.90;;;;;;5019658;28;20427;-47
2022/07/21 07:53:38;;;;;;;27.92;20.50;;;21.70;99.90;;;;;;5021353;28;20038;-39
2022/07/21 07:56:05;;;;;;;30.40;21.88;;;21.70;99.90;;;;;;5017464;28;20085;-36
2022/07/21 07:58:30;;;;;;;27.65;22.23;;;21.70;99.90;;;;;;5014711;28;20482;-39
2022/07/21 08:00:56;;;;;;;28.45;22.55;;;21.60;99.90;;;;;;5016028;28;20050;-39
2022/07/21 08:03:23;;;;;;;29.33;22.48;;;21.50;99.90;;;;;;5016581;28;20037;-38
2022/07/21 08:05:50;;;;;;;29.92;21.92;;;21.30;99.90;;;;;;5019939;28;20037;-40
2022/07/21 08:08:17;;;;;;;28.70;21.77;;;21.40;99.90;;;;;;5016891;28;20125;-40
2022/07/21 08:10:45;;;;;;;27.70;20.83;;;21.70;99.90;;;;;;5024358;28;20065;-38
2022/07/21 08:13:12;;;;;;;28.00;21.40;;;21.90;99.90;;;;;;5018518;28;20057;-39
2022/07/21 08:15:38;;;;;;;28.23;22.00;;;21.90;99.90;;;;;;5012968;28;20388;-37
2022/07/21 08:18:05;;;;;;;27.38;20.70;;;21.90;99.90;;;;;;5016260;28;20117;-38
2022/07/21 08:20:31;;;;;;;27.77;19.42;;;21.90;99.90;;;;;;5011717;28;20038;-40
2022/07/21 08:22:56;;;;;;;29.92;20.67;;;21.80;99.90;;;;;;5013870;28;20049;-38
2022/07/21 08:25:22;;;;;;;28.65;21.10;;;21.70;99.90;;;;;;5015286;28;20037;-39
2022/07/21 08:27:48;;;;;;;27.73;19.77;;;21.70;99.90;;;;;;5013378;28;20394;-38
2022/07/21 08:30:14;;;;;;;24.08;18.75;;;21.70;99.90;;;;;;5024197;28;20049;-40
2022/07/21 08:32:40;;;;;;;26.00;18.90;;;21.70;99.90;;;;;;5031101;28;20451;-38
2022/07/21 08:35:08;;;;;;;25.55;17.33;;;21.80;99.90;;;;;;5030703;28;20140;-40
2022/07/21 08:37:35;;;;;;;25.80;17.52;;;21.90;99.90;;;;;;5030460;28;20049;-38
2022/07/21 08:40:05;;;;;;;26.55;17.83;;;22.00;99.90;;;;;;5023940;28;20033;-39
2022/07/21 08:42:31;;;;;;;24.02;16.67;;;22.10;99.90;;;;;;5026095;28;20037;-38
2022/07/21 08:44:57;;;;;;;24.55;17.65;;;22.30;99.90;;;;;;5030395;28;20045;-40
2022/07/21 08:47:25;;;;;;;24.67;18.83;;;22.40;99.90;;;;;;5016386;28;20180;-37
2022/07/21 08:49:51;;;;;;;28.80;19.17;;;22.50;99.90;;;;;;5030910;28;20049;-38
2022/07/21 08:52:18;;;;;;;25.15;18.45;;;22.60;99.90;;;;;;5030924;28;20124;-38
2022/07/21 08:54:44;;;;;;;23.92;17.95;;;22.60;99.90;;;;;;5030807;28;20080;-38
2022/07/21 08:57:09;;;;;;;23.75;16.20;;;22.80;99.90;;;;;;5030610;28;20064;-40
2022/07/21 08:59:35;;;;;;;24.88;16.77;;;23.00;99.90;;;;;;5030940;28;20530;-38
2022/07/21 09:02:01;;;;;;;23.60;17.00;;;23.10;99.90;;;;;;5030676;28;20137;-38
2022/07/21 09:04:34;;;;;;;24.88;17.02;;;23.30;99.90;;;;;;5024718;28;20069;-38
2022/07/21 09:07:05;;;;;;;23.00;17.25;;;23.40;99.90;;;;;;5030278;28;20057;-41
2022/07/21 09:09:33;;;;;;;20.60;16.33;;;23.40;99.90;;;;;;5030901;28;20116;-40
2022/07/21 09:12:00;;;;;;;25.50;17.80;;;23.40;99.90;;;;;;5030235;28;20529;-37
2022/07/21 09:14:30;;;;;;;20.75;16.08;;;23.30;99.90;;;;;;5026956;28;20397;-38
2022/07/21 09:17:01;;;;;;;21.35;15.07;;;23.30;99.90;;;;;;5030419;28;20042;-38
2022/07/21 09:19:33;;;;;;;18.83;15.18;;;23.10;99.90;;;;;;5029877;28;20494;-40
2022/07/21 09:22:01;;;;;;;19.63;14.43;;;23.00;99.90;;;;;;5023831;28;20529;-38
2022/07/21 09:24:34;;;;;;;20.55;16.30;;;22.90;99.90;;;;;;5030407;28;20556;-38
2022/07/21 09:27:05;;;;;;;18.85;14.82;;;22.80;99.90;;;;;;5029963;28;20120;-38
2022/07/21 09:29:35;;;;;;;20.63;15.82;;;22.60;99.90;;;;;;5030379;28;20060;-38
2022/07/21 09:32:26;;;;;;;23.75;17.60;;;22.70;99.90;;;;;;5030335;28;20041;-40
2022/07/21 09:35:06;;;;;;;23.30;18.17;;;22.60;99.90;;;;;;5027151;28;20098;-38
2022/07/21 09:37:33;;;;;;;23.10;18.55;;;22.50;99.90;;;;;;5028602;28;20155;-40
2022/07/21 09:40:07;;;;;;;23.73;17.95;;;22.40;99.90;;;;;;5023339;28;20163;-38
2022/07/21 09:42:37;;;;;;;25.25;19.17;;;22.40;99.90;;;;;;5029870;28;20132;-38
2022/07/21 09:45:05;;;;;;;23.58;19.38;;;22.40;99.90;;;;;;5028706;28;20048;-40
2022/07/21 09:47:32;;;;;;;27.65;21.90;;;22.40;99.90;;;;;;5022871;28;20060;-40
2022/07/21 09:50:00;;;;;;;27.77;21.90;;;22.30;99.90;;;;;;5030065;28;20494;-38
2022/07/21 09:52:30;;;;;;;28.40;21.95;;;22.30;99.90;;;;;;5027986;28;20140;-40
2022/07/21 09:55:14;;;;;;;25.95;20.83;;;22.30;99.90;;;;;;5029715;28;20045;-41
2022/07/21 09:57:40;;;;;;;28.95;22.50;;;22.30;99.90;;;;;;5029739;28;20041;-38
2022/07/21 10:00:12;;;;;;;27.75;21.70;;;22.20;99.90;;;;;;5029757;28;20033;-40
2022/07/21 10:02:38;;;;;;;;;;;22.20;99.90;;;;;;5030388;28;20116;-40
2022/07/21 10:05:10;;;;;;;27.58;20.88;;;22.20;99.90;;;;;;5029740;28;20012;-38
2022/07/21 10:07:42;;;;;;;28.40;21.98;;;22.20;99.90;;;;;;5029616;28;20454;-38
2022/07/21 10:10:08;;;;;;;;;;;22.10;99.90;;;;;;5026927;28;20510;-38
2022/07/21 10:12:34;;;;;;;24.50;18.08;;;22.10;99.90;;;;;;5029575;28;20006;-38
2022/07/21 10:15:00;;;;;;;24.15;19.05;;;22.10;99.90;;;;;;5029440;28;20084;-38
2022/07/21 10:17:26;;;;;;;28.35;17.88;;;22.20;99.90;;;;;;5026958;28;20143;-38
2022/07/21 10:20:12;;;;;;;23.17;17.77;;;22.20;99.90;;;;;;5029551;28;20037;-38
2022/07/21 10:23:14;;;;;;;22.13;18.27;;;22.20;99.90;;;;;;5029729;28;20026;-38
2022/07/21 10:25:42;;;;;;;25.92;18.42;;;22.20;99.90;;;;;;5044718;28;20041;-38
2022/07/21 10:28:14;;;;;;;24.38;18.60;;;22.20;99.90;;;;;;5029386;28;20071;-38
2022/07/21 10:30:48;;;;;;;24.95;19.20;;;22.20;99.90;;;;;;5030866;28;20053;-38
2022/07/21 10:33:16;;;;;;;22.50;17.10;;;22.20;99.90;;;;;;5033634;28;20084;-38
2022/07/21 10:35:47;;;;;;;22.17;15.95;;;22.20;99.90;;;;;;5025417;28;20061;-38
2022/07/21 10:38:29;;;;;;;20.00;16.42;;;22.20;99.90;;;;;;5033462;28;20075;-41
2022/07/21 10:40:55;;;;;;;21.35;13.93;;;22.20;99.90;;;;;;5032023;28;20065;-38
2022/07/21 10:43:24;;;;;;;22.95;16.00;;;22.20;99.90;;;;;;5033520;28;20124;-39
2022/07/21 10:45:50;;;;;;;18.50;14.38;;;22.20;99.90;;;;;;5033214;28;20041;-41
2022/07/21 10:48:37;;;;;;;18.90;14.32;;;22.20;99.90;;;;;;5033434;28;20049;-38
2022/07/21 10:51:06;;;;;;;18.20;14.30;;;22.20;99.90;;;;;;5026886;28;20111;-41
2022/07/21 10:53:32;;;;;;;19.90;15.65;;;22.20;99.90;;;;;;5032761;28;20068;-40
2022/07/21 10:55:58;;;;;;;18.92;14.38;;;22.30;99.90;;;;;;5025943;28;20057;-39
2022/07/21 10:58:31;;;;;;;20.15;15.13;;;22.30;99.90;;;;;;5030451;28;20048;-39
2022/07/21 11:01:05;;;;;;;24.35;14.70;;;22.40;99.90;;;;;;5033450;28;20037;-41
2022/07/21 11:03:33;;;;;;;18.83;12.95;;;22.50;99.90;;;;;;5033165;28;20041;-39
2022/07/21 11:06:22;;;;;;;18.83;13.30;;;22.50;99.90;;;;;;5033040;28;20038;-37
2022/07/21 11:09:06;;;;;;;17.77;12.85;;;22.50;99.90;;;;;;5027117;28;20050;-39
2022/07/21 11:11:57;;;;;;;15.68;11.93;;;22.50;99.90;;;;;;5028453;28;20112;-41
2022/07/21 11:14:40;;;;;;;13.60;9.20;;;22.50;99.90;;;;;;5025248;28;20053;-41
2022/07/21 11:17:06;;;;;;;13.30;10.02;;;22.50;99.90;;;;;;5032399;28;20038;-41
2022/07/21 11:19:39;;;;;;;14.85;10.77;;;22.40;99.90;;;;;;5032654;28;20037;-39
2022/07/21 11:22:12;;;;;;;15.10;11.35;;;22.20;99.90;;;;;;5032335;28;20049;-39
2022/07/21 11:24:40;;;;;;;12.82;10.32;;;22.10;99.90;;;;;;5032570;28;20037;-40
2022/07/21 11:27:11;;;;;;;13.65;7.78;;;21.80;99.90;;;;;;5028749;28;20129;-40
2022/07/21 11:29:39;;;;;;;6.25;5.25;;;21.60;99.90;;;;;;5032249;28;20049;-38
2022/07/21 11:32:05;;;;;;;7.68;5.68;;;21.40;99.90;;;;;;5032522;28;20513;-38
2022/07/21 11:34:58;;;;;;;7.53;6.15;;;21.10;99.90;;;;;;5032665;28;20064;-38
2022/07/21 11:37:30;;;;;;;6.72;5.25;;;21.00;99.90;;;;;;5027424;28;20049;-38
2022/07/21 11:39:56;;;;;;;10.45;6.43;;;20.90;99.90;;;;;;5032593;28;20200;-40
2022/07/21 11:42:23;;;;;;;9.20;6.43;;;20.80;99.90;;;;;;5031216;28;20056;-39
2022/07/21 11:44:49;;;;;;;9.02;6.32;;;20.80;99.90;;;;;;5032194;28;20117;-37
2022/07/21 11:47:15;;;;;;;11.82;8.27;;;20.80;99.90;;;;;;5025668;28;20530;-40
2022/07/21 11:49:44;;;;;;;10.80;8.05;;;20.70;99.90;;;;;;5030846;28;20045;-40
2022/07/21 11:52:12;;;;;;;11.73;9.27;;;20.80;99.90;;;;;;5031527;28;20128;-38
2022/07/21 11:54:42;;;;;;;11.38;8.75;;;20.90;99.90;;;;;;5022381;28;20061;-39
2022/07/21 11:57:09;;;;;;;13.23;9.32;;;21.00;99.90;;;;;;5027308;28;20037;-38
2022/07/21 11:59:36;;;;;;;11.85;9.23;;;21.10;99.90;;;;;;5019074;28;20077;-37
2022/07/21 12:02:29;;;;;;;11.00;8.40;;;21.20;99.90;;;;;;5016890;28;20088;-40
2022/07/21 12:04:58;;;;;;;11.15;8.90;;;21.20;99.90;;;;;;5026745;28;20049;-40
2022/07/21 12:07:26;;;;;;;11.68;8.95;;;21.20;99.90;;;;;;5031803;28;20115;-40
2022/07/21 12:09:55;;;;;;;14.73;9.70;;;21.20;99.90;;;;;;5031932;28;20053;-38
2022/07/21 12:12:41;;;;;;;11.70;8.48;;;21.00;99.90;;;;;;5025819;28;20042;-38
2022/07/21 12:15:10;;;;;;;9.30;6.38;;;20.80;99.90;;;;;;5029980;28;20379;-38
2022/07/21 12:18:05;;;;;;;5.07;3.10;;;20.70;99.90;;;;;;5026860;28;20077;-38
2022/07/21 12:20:35;;;;;;;4.95;2.20;;;20.60;99.90;;;;;;5031300;28;20077;-39
2022/07/21 12:23:25;;;;;;;2.55;1.58;;;20.60;99.90;;;;;;5031252;28;20049;-38
2022/07/21 12:25:52;;;;;;;4.13;2.40;;;20.50;99.90;;;;;;5031455;28;20045;-38
2022/07/21 12:28:17;;;;;;;2.95;1.67;;;20.50;99.90;;;;;;5019825;28;20121;-38
2022/07/21 12:30:46;;;;;;;3.33;1.80;;;20.50;99.90;;;;;;5031811;28;20201;-38
2022/07/21 12:33:21;;;;;;;3.90;2.40;;;20.50;99.90;;;;;;5031377;28;20038;-39
2022/07/21 12:35:58;;;;;;;3.03;1.77;;;20.50;99.90;;;;;;5031324;28;20398;-38